createdAt,value
2024-02-08T00:01:59.976Z,2.00
2024-02-08T00:07:04.168Z,1.80
2024-02-08T00:12:07.497Z,2.00
2024-02-08T00:17:10.470Z,1.80
2024-02-08T00:22:14.737Z,2.00
2024-02-08T00:27:19.610Z,2.00
2024-02-08T00:32:22.609Z,2.00
2024-02-08T00:37:26.936Z,2.00
2024-02-08T00:42:29.755Z,1.00
2024-02-08T00:47:32.684Z,1.80
2024-02-08T00:52:36.939Z,1.40
2024-02-08T00:57:39.948Z,2.00
2024-02-08T01:02:43.002Z,4.00
2024-02-08T01:07:47.213Z,2.00
2024-02-08T01:12:51.345Z,2.00
2024-02-08T01:17:55.004Z,2.00
2024-02-08T01:23:00.795Z,1.60
2024-02-08T01:28:04.967Z,2.00
2024-02-08T01:33:12.263Z,1.00
2024-02-08T01:38:17.595Z,1.00
2024-02-08T01:43:20.557Z,1.00
2024-02-08T01:48:23.634Z,3.60
2024-02-08T01:53:29.031Z,1.40
2024-02-08T01:58:33.217Z,1.00
2024-02-08T02:03:47.964Z,3.20
2024-02-08T02:16:15.470Z,4.00
2024-02-08T02:21:21.263Z,3.60
2024-02-08T02:26:24.584Z,4.00
2024-02-08T02:31:28.335Z,2.20
2024-02-08T02:36:33.503Z,4.20
2024-02-08T02:41:36.311Z,3.00
2024-02-08T02:46:39.205Z,2.00
2024-02-08T02:51:45.939Z,2.80
2024-02-08T02:56:49.112Z,1.80
2024-02-08T03:01:57.052Z,4.80
2024-02-08T03:07:01.483Z,3.80
2024-02-08T03:12:04.548Z,2.80
2024-02-08T03:17:08.164Z,2.60
2024-02-08T03:22:12.501Z,3.20
2024-02-08T03:27:17.343Z,3.60
2024-02-08T03:32:22.326Z,2.40
2024-02-08T03:37:27.242Z,2.80
2024-02-08T03:42:30.334Z,2.80
2024-02-08T03:54:46.914Z,1.20
2024-02-08T03:59:49.930Z,1.00
2024-02-08T04:04:55.734Z,4.00
2024-02-08T04:10:12.217Z,4.00
2024-02-08T04:15:46.946Z,2.40
2024-02-08T04:21:07.512Z,2.00
2024-02-08T04:26:29.305Z,2.60
2024-02-08T04:31:49.676Z,2.00
2024-02-08T04:37:10.107Z,2.00
2024-02-08T04:42:28.278Z,2.00
2024-02-08T04:47:48.407Z,2.00
2024-02-08T04:53:09.129Z,1.00
2024-02-08T04:58:36.428Z,2.00
2024-02-08T05:03:38.865Z,1.40
2024-02-08T05:08:42.705Z,2.00
2024-02-08T05:13:51.164Z,1.00
2024-02-08T05:18:54.638Z,1.60
2024-02-08T05:23:59.421Z,1.00
2024-02-08T05:29:03.621Z,1.80
2024-02-08T05:34:16.441Z,2.00
2024-02-08T05:39:26.030Z,1.00
2024-02-08T05:44:33.250Z,2.00
2024-02-08T05:49:37.155Z,1.20
2024-02-08T05:54:45.036Z,1.00
2024-02-08T05:59:51.800Z,2.00
2024-02-08T06:05:02.094Z,1.00
2024-02-08T06:10:15.243Z,2.00
2024-02-08T06:15:33.110Z,1.00
2024-02-08T06:20:41.666Z,1.60
2024-02-08T06:25:47.248Z,1.00
2024-02-08T06:30:51.475Z,2.80
2024-02-08T06:35:57.980Z,2.00
2024-02-08T06:41:00.974Z,2.00
2024-02-08T06:46:15.643Z,2.00
2024-02-08T06:51:36.306Z,3.00
2024-02-08T06:56:56.872Z,2.80
2024-02-08T07:02:18.620Z,2.00
2024-02-08T07:07:39.010Z,2.00
2024-02-08T07:12:59.659Z,3.20
2024-02-08T07:18:21.396Z,2.80
2024-02-08T07:23:41.966Z,2.80
2024-02-08T07:29:02.164Z,4.00
2024-02-08T07:34:23.818Z,3.60
2024-02-08T07:39:36.032Z,1.00
2024-02-08T07:44:40.319Z,28.20
2024-02-08T07:49:46.002Z,27.50
2024-02-08T07:54:57.809Z,30.50
2024-02-08T08:00:01.436Z,27.75
2024-02-08T08:05:24.760Z,22.00
2024-02-08T08:10:34.454Z,20.00
2024-02-08T08:15:50.766Z,20.80
2024-02-08T08:21:01.109Z,20.40
2024-02-08T08:26:24.855Z,17.60
2024-02-08T08:31:52.462Z,21.20
2024-02-08T08:37:00.298Z,18.00
2024-02-08T08:42:06.910Z,15.60
2024-02-08T08:47:09.789Z,13.20
2024-02-08T08:52:24.676Z,12.00
2024-02-08T08:57:27.786Z,11.80
2024-02-08T09:02:30.865Z,11.80
2024-02-08T09:07:39.165Z,9.60
2024-02-08T09:12:59.468Z,10.00
2024-02-08T09:18:10.262Z,7.80
2024-02-08T09:23:16.975Z,7.60
2024-02-08T09:28:27.510Z,11.20
2024-02-08T09:33:37.228Z,6.60
2024-02-08T09:38:46.230Z,9.40
2024-02-08T09:43:50.283Z,7.00
2024-02-08T09:48:53.353Z,8.40
2024-02-08T09:54:16.130Z,7.20
2024-02-08T09:59:34.853Z,6.80
2024-02-08T10:04:44.113Z,7.60
2024-02-08T10:09:49.108Z,7.60
2024-02-08T10:14:56.392Z,7.00
2024-02-08T10:20:28.880Z,6.40
2024-02-08T10:26:04.882Z,9.60
2024-02-08T10:31:08.381Z,7.00
2024-02-08T10:36:16.389Z,7.60
2024-02-08T10:41:21.182Z,6.80
2024-02-08T10:46:24.234Z,6.60
2024-02-08T10:51:28.394Z,7.00
2024-02-08T10:56:42.093Z,8.80
2024-02-08T11:02:03.999Z,8.00
2024-02-08T11:07:18.348Z,7.00
2024-02-08T11:12:24.178Z,7.80
2024-02-08T11:17:29.277Z,7.20
2024-02-08T11:22:41.210Z,7.20
2024-02-08T11:27:49.023Z,8.00
2024-02-08T11:33:02.959Z,7.00
2024-02-08T11:38:13.374Z,7.00
2024-02-08T11:43:26.198Z,4.80
2024-02-08T11:48:32.560Z,8.00
2024-02-08T11:53:35.693Z,7.00
2024-02-08T11:58:42.812Z,8.40
2024-02-08T12:03:45.764Z,7.60
2024-02-08T12:08:56.493Z,4.80
2024-02-08T12:14:11.280Z,5.80
2024-02-08T12:19:23.495Z,5.80
2024-02-08T12:24:26.399Z,5.00
2024-02-08T12:29:31.194Z,5.00
2024-02-08T12:34:35.557Z,7.00
2024-02-08T12:39:41.068Z,7.40
2024-02-08T12:44:47.443Z,5.20
2024-02-08T12:49:51.730Z,4.00
2024-02-08T12:54:55.304Z,4.00
2024-02-08T13:00:03.536Z,7.00
2024-02-08T13:05:06.785Z,4.00
2024-02-08T13:10:16.428Z,4.20
2024-02-08T13:15:23.721Z,4.00
2024-02-08T13:20:27.354Z,6.20
2024-02-08T13:25:30.309Z,4.60
2024-02-08T13:30:38.009Z,5.20
2024-02-08T13:35:42.860Z,7.00
2024-02-08T13:40:46.688Z,5.00
2024-02-08T13:45:55.821Z,7.40
2024-02-08T13:51:07.273Z,7.00
2024-02-08T13:56:13.011Z,6.60
2024-02-08T14:01:26.857Z,7.00
2024-02-08T14:06:31.113Z,7.00
2024-02-08T14:11:40.265Z,5.00
2024-02-08T14:16:52.814Z,7.40
2024-02-08T14:22:00.296Z,7.40
2024-02-08T14:27:06.236Z,7.00
2024-02-08T14:32:17.221Z,4.20
2024-02-08T14:37:29.708Z,5.00
2024-02-08T14:42:38.411Z,4.00
2024-02-08T14:47:43.285Z,8.00
2024-02-08T14:52:50.876Z,5.00
2024-02-08T14:57:59.845Z,4.20
2024-02-08T15:03:09.279Z,5.00
2024-02-08T15:08:26.738Z,6.20
2024-02-08T15:13:29.698Z,5.40
2024-02-08T15:18:40.693Z,4.20
2024-02-08T15:24:06.395Z,4.60
2024-02-08T15:29:10.222Z,4.60
2024-02-08T15:34:41.323Z,4.00
2024-02-08T15:40:11.053Z,4.20
2024-02-08T15:45:15.629Z,4.80
2024-02-08T15:50:26.030Z,5.40
2024-02-08T15:55:40.128Z,4.00
2024-02-08T16:01:01.041Z,4.20
2024-02-08T16:06:25.700Z,4.00
2024-02-08T16:11:31.258Z,5.00
2024-02-08T16:16:34.500Z,5.00
2024-02-08T16:21:40.363Z,7.80
2024-02-08T16:26:47.515Z,6.20
2024-02-08T16:31:56.159Z,10.80
2024-02-08T16:37:05.052Z,12.00
2024-02-08T16:42:19.062Z,9.80
2024-02-08T16:47:30.150Z,12.40
2024-02-08T16:52:42.829Z,12.40
2024-02-08T16:57:53.275Z,12.40
2024-02-08T17:03:05.799Z,13.40
2024-02-08T17:08:15.879Z,12.40
2024-02-08T17:13:22.246Z,11.80
2024-02-08T17:18:26.369Z,17.20
2024-02-08T17:23:42.863Z,15.00
2024-02-08T17:28:54.321Z,14.80
2024-02-08T17:33:58.473Z,15.60
2024-02-08T17:39:07.846Z,17.20
2024-02-08T17:44:10.874Z,13.40
2024-02-08T17:49:21.234Z,12.00
2024-02-08T17:54:26.626Z,14.20
2024-02-08T17:59:30.275Z,14.80
2024-02-08T18:04:37.722Z,15.20
2024-02-08T18:09:54.706Z,14.00
2024-02-08T18:15:12.243Z,14.60
2024-02-08T18:20:16.769Z,12.40
2024-02-08T18:25:29.731Z,12.20
2024-02-08T18:30:36.199Z,13.60
2024-02-08T18:35:39.745Z,14.00
2024-02-08T18:40:48.792Z,15.00
2024-02-08T18:45:53.553Z,14.20
2024-02-08T18:50:57.173Z,16.40
2024-02-08T18:56:03.557Z,17.00
2024-02-08T19:01:08.823Z,13.80
2024-02-08T19:06:16.106Z,14.60
2024-02-08T19:11:21.540Z,12.80
2024-02-08T19:16:28.981Z,14.00
2024-02-08T19:21:33.486Z,13.60
2024-02-08T19:26:38.925Z,12.40
2024-02-08T19:31:47.462Z,13.00
2024-02-08T19:36:54.378Z,12.20
2024-02-08T19:42:01.238Z,10.80
2024-02-08T19:47:13.599Z,15.80
2024-02-08T19:52:17.625Z,11.60
2024-02-08T19:57:33.774Z,11.00
2024-02-08T20:02:40.720Z,11.60
2024-02-08T20:07:45.454Z,10.60
2024-02-08T20:12:53.309Z,11.80
2024-02-08T20:17:56.515Z,11.20
2024-02-08T20:23:11.449Z,12.40
2024-02-08T20:28:16.699Z,10.20
2024-02-08T20:33:20.124Z,8.00
2024-02-08T20:38:25.663Z,10.40
2024-02-08T20:43:32.127Z,8.80
2024-02-08T20:48:35.445Z,9.80
2024-02-08T20:53:38.742Z,11.60
2024-02-08T20:58:43.324Z,8.60
2024-02-08T21:03:46.968Z,9.80
2024-02-08T21:08:51.226Z,8.40
2024-02-08T21:13:55.613Z,9.00
2024-02-08T21:18:58.936Z,7.80
2024-02-08T21:24:02.061Z,8.40
2024-02-08T21:29:06.648Z,6.00
2024-02-08T21:34:09.940Z,9.00
2024-02-08T21:39:19.542Z,8.00
2024-02-08T21:44:26.870Z,10.20
2024-02-08T21:49:29.891Z,8.20
2024-02-08T21:54:32.808Z,8.00
2024-02-08T21:59:37.442Z,8.60
2024-02-08T22:04:40.489Z,5.60
2024-02-08T22:09:46.031Z,8.40
2024-02-08T22:14:51.392Z,7.60
2024-02-08T22:19:54.380Z,9.00
2024-02-08T22:24:58.516Z,6.80
2024-02-08T22:30:03.000Z,9.60
2024-02-08T22:35:06.450Z,8.00
2024-02-08T22:40:10.463Z,6.80
2024-02-08T22:45:15.125Z,4.00
2024-02-08T22:50:18.553Z,5.80
2024-02-08T22:55:23.681Z,5.00
2024-02-08T23:00:49.405Z,6.00
2024-02-08T23:05:56.209Z,4.80
2024-02-08T23:10:59.727Z,8.60
2024-02-08T23:16:09.341Z,7.80
2024-02-08T23:21:12.536Z,6.00
2024-02-08T23:26:16.544Z,5.00
2024-02-08T23:31:22.199Z,5.80
2024-02-08T23:36:25.111Z,7.60
2024-02-08T23:41:29.029Z,7.60
2024-02-08T23:46:33.737Z,5.20
2024-02-08T23:51:36.716Z,4.20
2024-02-08T23:56:40.768Z,5.60
